sensor_id;sensor_type;location;lat;lon;timestamp;temperature;humidity
44775;DHT22;31340;51.402;0.016;2022-08-21T00:00:27;18.70;81.20
44775;DHT22;31340;51.402;0.016;2022-08-21T00:03:03;18.70;81.50
44775;DHT22;31340;51.402;0.016;2022-08-21T00:05:32;18.70;81.70
44775;DHT22;31340;51.402;0.016;2022-08-21T00:07:59;18.60;81.80
44775;DHT22;31340;51.402;0.016;2022-08-21T00:10:29;18.60;82.00
44775;DHT22;31340;51.402;0.016;2022-08-21T00:12:57;18.60;82.10
44775;DHT22;31340;51.402;0.016;2022-08-21T00:15:26;18.60;82.50
44775;DHT22;31340;51.402;0.016;2022-08-21T00:17:53;18.50;82.50
44775;DHT22;31340;51.402;0.016;2022-08-21T00:20:21;18.50;82.40
44775;DHT22;31340;51.402;0.016;2022-08-21T00:22:49;18.50;82.70
44775;DHT22;31340;51.402;0.016;2022-08-21T00:25:17;18.50;82.90
44775;DHT22;31340;51.402;0.016;2022-08-21T00:27:50;18.50;83.00
44775;DHT22;31340;51.402;0.016;2022-08-21T00:30:19;18.40;83.10
44775;DHT22;31340;51.402;0.016;2022-08-21T00:32:50;18.40;83.40
44775;DHT22;31340;51.402;0.016;2022-08-21T00:35:20;18.40;83.40
44775;DHT22;31340;51.402;0.016;2022-08-21T00:37:48;18.40;83.50
44775;DHT22;31340;51.402;0.016;2022-08-21T00:40:17;18.40;83.70
44775;DHT22;31340;51.402;0.016;2022-08-21T00:42:45;18.30;83.60
44775;DHT22;31340;51.402;0.016;2022-08-21T00:45:20;18.30;83.70
44775;DHT22;31340;51.402;0.016;2022-08-21T00:47:48;18.30;84.20
44775;DHT22;31340;51.402;0.016;2022-08-21T00:50:18;18.30;84.30
44775;DHT22;31340;51.402;0.016;2022-08-21T00:52:51;18.30;84.40
44775;DHT22;31340;51.402;0.016;2022-08-21T00:55:19;18.30;84.50
44775;DHT22;31340;51.402;0.016;2022-08-21T00:57:51;18.30;84.60
44775;DHT22;31340;51.402;0.016;2022-08-21T01:00:21;18.20;84.80
44775;DHT22;31340;51.402;0.016;2022-08-21T01:02:48;18.20;85.00
44775;DHT22;31340;51.402;0.016;2022-08-21T01:05:16;18.20;85.10
44775;DHT22;31340;51.402;0.016;2022-08-21T01:07:44;18.20;85.20
44775;DHT22;31340;51.402;0.016;2022-08-21T01:10:12;18.10;85.20
44775;DHT22;31340;51.402;0.016;2022-08-21T01:12:51;18.10;85.30
44775;DHT22;31340;51.402;0.016;2022-08-21T01:15:19;18.10;85.50
44775;DHT22;31340;51.402;0.016;2022-08-21T01:17:48;18.10;85.70
44775;DHT22;31340;51.402;0.016;2022-08-21T01:20:16;18.10;85.70
44775;DHT22;31340;51.402;0.016;2022-08-21T01:22:43;18.10;85.80
44775;DHT22;31340;51.402;0.016;2022-08-21T01:25:12;18.10;86.00
44775;DHT22;31340;51.402;0.016;2022-08-21T01:27:40;18.10;86.00
44775;DHT22;31340;51.402;0.016;2022-08-21T01:30:15;18.10;86.20
44775;DHT22;31340;51.402;0.016;2022-08-21T01:32:43;18.00;86.30
44775;DHT22;31340;51.402;0.016;2022-08-21T01:35:11;18.00;86.30
44775;DHT22;31340;51.402;0.016;2022-08-21T01:37:38;18.00;86.50
44775;DHT22;31340;51.402;0.016;2022-08-21T01:40:07;18.00;86.60
44775;DHT22;31340;51.402;0.016;2022-08-21T01:42:35;17.90;86.60
44775;DHT22;31340;51.402;0.016;2022-08-21T01:45:03;17.90;87.00
44775;DHT22;31340;51.402;0.016;2022-08-21T01:47:31;17.90;87.10
44775;DHT22;31340;51.402;0.016;2022-08-21T01:49:58;17.90;87.30
44775;DHT22;31340;51.402;0.016;2022-08-21T01:52:26;17.80;87.30
44775;DHT22;31340;51.402;0.016;2022-08-21T01:54:53;17.90;87.40
44775;DHT22;31340;51.402;0.016;2022-08-21T01:57:22;17.90;87.60
44775;DHT22;31340;51.402;0.016;2022-08-21T01:59:52;17.80;87.60
44775;DHT22;31340;51.402;0.016;2022-08-21T02:02:20;17.80;87.90
44775;DHT22;31340;51.402;0.016;2022-08-21T02:04:47;17.80;87.90
44775;DHT22;31340;51.402;0.016;2022-08-21T02:07:15;17.80;88.00
44775;DHT22;31340;51.402;0.016;2022-08-21T02:09:43;17.80;88.20
44775;DHT22;31340;51.402;0.016;2022-08-21T02:12:11;17.80;88.30
44775;DHT22;31340;51.402;0.016;2022-08-21T02:14:39;17.80;88.40
44775;DHT22;31340;51.402;0.016;2022-08-21T02:17:07;17.70;88.50
44775;DHT22;31340;51.402;0.016;2022-08-21T02:19:36;17.70;88.70
44775;DHT22;31340;51.402;0.016;2022-08-21T02:22:08;17.70;88.70
44775;DHT22;31340;51.402;0.016;2022-08-21T02:24:36;17.70;88.80
44775;DHT22;31340;51.402;0.016;2022-08-21T02:27:22;17.70;88.90
44775;DHT22;31340;51.402;0.016;2022-08-21T02:29:56;17.70;88.90
44775;DHT22;31340;51.402;0.016;2022-08-21T02:32:24;17.60;89.00
44775;DHT22;31340;51.402;0.016;2022-08-21T02:34:53;17.70;89.20
44775;DHT22;31340;51.402;0.016;2022-08-21T02:37:21;17.60;89.30
44775;DHT22;31340;51.402;0.016;2022-08-21T02:39:48;17.60;89.30
44775;DHT22;31340;51.402;0.016;2022-08-21T02:42:17;17.60;89.40
44775;DHT22;31340;51.402;0.016;2022-08-21T02:44:44;17.60;89.50
44775;DHT22;31340;51.402;0.016;2022-08-21T02:47:11;17.60;89.70
44775;DHT22;31340;51.402;0.016;2022-08-21T02:49:39;17.60;89.80
44775;DHT22;31340;51.402;0.016;2022-08-21T02:52:06;17.60;90.00
44775;DHT22;31340;51.402;0.016;2022-08-21T02:54:33;17.60;90.20
44775;DHT22;31340;51.402;0.016;2022-08-21T02:57:01;17.50;90.10
44775;DHT22;31340;51.402;0.016;2022-08-21T02:59:28;17.50;90.20
44775;DHT22;31340;51.402;0.016;2022-08-21T03:01:56;17.50;90.20
44775;DHT22;31340;51.402;0.016;2022-08-21T03:04:24;17.50;90.20
44775;DHT22;31340;51.402;0.016;2022-08-21T03:06:51;17.50;90.20
44775;DHT22;31340;51.402;0.016;2022-08-21T03:09:19;17.50;90.40
44775;DHT22;31340;51.402;0.016;2022-08-21T03:11:46;17.50;90.40
44775;DHT22;31340;51.402;0.016;2022-08-21T03:14:14;17.50;90.40
44775;DHT22;31340;51.402;0.016;2022-08-21T03:16:41;17.50;90.50
44775;DHT22;31340;51.402;0.016;2022-08-21T03:19:09;17.50;90.60
44775;DHT22;31340;51.402;0.016;2022-08-21T03:21:37;17.40;90.60
44775;DHT22;31340;51.402;0.016;2022-08-21T03:24:05;17.40;90.70
44775;DHT22;31340;51.402;0.016;2022-08-21T03:26:34;17.50;90.70
44775;DHT22;31340;51.402;0.016;2022-08-21T03:29:01;17.50;90.70
44775;DHT22;31340;51.402;0.016;2022-08-21T03:31:28;17.40;90.70
44775;DHT22;31340;51.402;0.016;2022-08-21T03:33:58;17.50;90.70
44775;DHT22;31340;51.402;0.016;2022-08-21T03:36:25;17.40;90.80
44775;DHT22;31340;51.402;0.016;2022-08-21T03:38:53;17.40;90.80
44775;DHT22;31340;51.402;0.016;2022-08-21T03:41:21;17.40;90.80
44775;DHT22;31340;51.402;0.016;2022-08-21T03:43:48;17.40;90.90
44775;DHT22;31340;51.402;0.016;2022-08-21T03:46:16;17.40;90.90
44775;DHT22;31340;51.402;0.016;2022-08-21T03:48:43;17.40;90.90
44775;DHT22;31340;51.402;0.016;2022-08-21T03:51:11;17.40;91.00
44775;DHT22;31340;51.402;0.016;2022-08-21T03:53:39;17.40;91.00
44775;DHT22;31340;51.402;0.016;2022-08-21T03:56:07;17.40;91.10
44775;DHT22;31340;51.402;0.016;2022-08-21T03:58:34;17.40;91.10
44775;DHT22;31340;51.402;0.016;2022-08-21T04:01:02;17.40;91.10
44775;DHT22;31340;51.402;0.016;2022-08-21T04:03:30;17.30;91.10
44775;DHT22;31340;51.402;0.016;2022-08-21T04:05:57;17.40;91.10
44775;DHT22;31340;51.402;0.016;2022-08-21T04:08:25;17.30;91.20
44775;DHT22;31340;51.402;0.016;2022-08-21T04:10:54;17.30;91.10
44775;DHT22;31340;51.402;0.016;2022-08-21T04:13:22;17.30;91.20
44775;DHT22;31340;51.402;0.016;2022-08-21T04:15:50;17.30;91.20
44775;DHT22;31340;51.402;0.016;2022-08-21T04:18:17;17.30;91.20
44775;DHT22;31340;51.402;0.016;2022-08-21T04:20:45;17.30;91.20
44775;DHT22;31340;51.402;0.016;2022-08-21T04:23:20;17.30;91.20
44775;DHT22;31340;51.402;0.016;2022-08-21T04:25:54;17.30;91.20
44775;DHT22;31340;51.402;0.016;2022-08-21T04:28:23;17.30;91.30
44775;DHT22;31340;51.402;0.016;2022-08-21T04:30:55;17.30;91.20
44775;DHT22;31340;51.402;0.016;2022-08-21T04:33:23;17.30;91.30
44775;DHT22;31340;51.402;0.016;2022-08-21T04:35:51;17.30;91.20
44775;DHT22;31340;51.402;0.016;2022-08-21T04:38:19;17.30;91.30
44775;DHT22;31340;51.402;0.016;2022-08-21T04:40:46;17.30;91.30
44775;DHT22;31340;51.402;0.016;2022-08-21T04:43:15;17.30;91.30
44775;DHT22;31340;51.402;0.016;2022-08-21T04:45:44;17.30;91.30
44775;DHT22;31340;51.402;0.016;2022-08-21T04:48:13;17.30;91.30
44775;DHT22;31340;51.402;0.016;2022-08-21T04:53:18;17.20;91.30
44775;DHT22;31340;51.402;0.016;2022-08-21T04:55:47;17.30;91.30
44775;DHT22;31340;51.402;0.016;2022-08-21T04:58:17;17.30;91.30
44775;DHT22;31340;51.402;0.016;2022-08-21T05:00:45;17.20;91.30
44775;DHT22;31340;51.402;0.016;2022-08-21T05:03:13;17.20;91.30
44775;DHT22;31340;51.402;0.016;2022-08-21T05:05:42;17.20;91.40
44775;DHT22;31340;51.402;0.016;2022-08-21T05:08:11;17.20;91.40
44775;DHT22;31340;51.402;0.016;2022-08-21T05:10:39;17.20;91.40
44775;DHT22;31340;51.402;0.016;2022-08-21T05:13:07;17.20;91.80
44775;DHT22;31340;51.402;0.016;2022-08-21T05:15:34;17.20;91.40
44775;DHT22;31340;51.402;0.016;2022-08-21T05:18:02;17.20;91.40
44775;DHT22;31340;51.402;0.016;2022-08-21T05:20:29;17.20;91.40
44775;DHT22;31340;51.402;0.016;2022-08-21T05:22:56;17.20;91.40
44775;DHT22;31340;51.402;0.016;2022-08-21T05:25:24;17.20;91.40
44775;DHT22;31340;51.402;0.016;2022-08-21T05:27:54;17.20;91.40
44775;DHT22;31340;51.402;0.016;2022-08-21T05:30:24;17.20;91.40
44775;DHT22;31340;51.402;0.016;2022-08-21T05:32:56;17.20;91.40
44775;DHT22;31340;51.402;0.016;2022-08-21T05:35:23;17.20;91.50
44775;DHT22;31340;51.402;0.016;2022-08-21T05:37:51;17.10;91.40
44775;DHT22;31340;51.402;0.016;2022-08-21T05:40:18;17.20;91.50
44775;DHT22;31340;51.402;0.016;2022-08-21T05:42:50;17.10;91.50
44775;DHT22;31340;51.402;0.016;2022-08-21T05:45:29;17.20;91.60
44775;DHT22;31340;51.402;0.016;2022-08-21T05:48:11;17.20;91.60
44775;DHT22;31340;51.402;0.016;2022-08-21T05:50:39;17.30;91.70
44775;DHT22;31340;51.402;0.016;2022-08-21T05:53:06;17.20;92.10
44775;DHT22;31340;51.402;0.016;2022-08-21T05:55:35;17.20;91.90
44775;DHT22;31340;51.402;0.016;2022-08-21T05:58:08;17.20;91.80
44775;DHT22;31340;51.402;0.016;2022-08-21T06:00:36;17.30;91.80
44775;DHT22;31340;51.402;0.016;2022-08-21T06:03:03;17.30;91.90
44775;DHT22;31340;51.402;0.016;2022-08-21T06:05:31;17.30;91.90
44775;DHT22;31340;51.402;0.016;2022-08-21T06:08:03;17.30;91.90
44775;DHT22;31340;51.402;0.016;2022-08-21T06:10:31;17.40;92.00
44775;DHT22;31340;51.402;0.016;2022-08-21T06:12:58;17.40;92.00
44775;DHT22;31340;51.402;0.016;2022-08-21T06:15:26;17.40;92.00
44775;DHT22;31340;51.402;0.016;2022-08-21T06:17:53;17.40;92.10
44775;DHT22;31340;51.402;0.016;2022-08-21T06:20:21;17.50;92.10
44775;DHT22;31340;51.402;0.016;2022-08-21T06:22:49;17.50;92.10
44775;DHT22;31340;51.402;0.016;2022-08-21T06:25:16;17.50;92.10
44775;DHT22;31340;51.402;0.016;2022-08-21T06:27:43;17.50;92.00
44775;DHT22;31340;51.402;0.016;2022-08-21T06:30:11;17.50;92.00
44775;DHT22;31340;51.402;0.016;2022-08-21T06:32:39;17.60;92.10
44775;DHT22;31340;51.402;0.016;2022-08-21T06:35:07;17.60;92.10
44775;DHT22;31340;51.402;0.016;2022-08-21T06:37:34;17.60;92.10
44775;DHT22;31340;51.402;0.016;2022-08-21T06:40:03;17.60;92.00
44775;DHT22;31340;51.402;0.016;2022-08-21T06:42:31;17.70;92.10
44775;DHT22;31340;51.402;0.016;2022-08-21T06:44:58;17.80;92.10
44775;DHT22;31340;51.402;0.016;2022-08-21T06:47:26;17.80;92.10
44775;DHT22;31340;51.402;0.016;2022-08-21T06:49:53;17.80;92.10
44775;DHT22;31340;51.402;0.016;2022-08-21T06:52:21;17.90;92.10
44775;DHT22;31340;51.402;0.016;2022-08-21T06:54:48;17.90;92.00
44775;DHT22;31340;51.402;0.016;2022-08-21T06:57:17;18.00;92.10
44775;DHT22;31340;51.402;0.016;2022-08-21T06:59:44;18.00;92.10
44775;DHT22;31340;51.402;0.016;2022-08-21T07:02:11;18.10;92.10
44775;DHT22;31340;51.402;0.016;2022-08-21T07:04:39;18.10;92.10
44775;DHT22;31340;51.402;0.016;2022-08-21T07:07:06;18.10;92.00
44775;DHT22;31340;51.402;0.016;2022-08-21T07:09:33;18.10;92.00
44775;DHT22;31340;51.402;0.016;2022-08-21T07:12:01;18.20;92.00
44775;DHT22;31340;51.402;0.016;2022-08-21T07:14:29;18.20;92.00
44775;DHT22;31340;51.402;0.016;2022-08-21T07:16:56;18.30;92.00
44775;DHT22;31340;51.402;0.016;2022-08-21T07:19:24;18.40;91.90
44775;DHT22;31340;51.402;0.016;2022-08-21T07:21:53;18.40;92.00
44775;DHT22;31340;51.402;0.016;2022-08-21T07:24:21;18.50;92.00
44775;DHT22;31340;51.402;0.016;2022-08-21T07:26:49;18.60;91.90
44775;DHT22;31340;51.402;0.016;2022-08-21T07:29:16;18.60;91.80
44775;DHT22;31340;51.402;0.016;2022-08-21T07:31:44;18.70;91.90
44775;DHT22;31340;51.402;0.016;2022-08-21T07:34:12;18.80;91.80
44775;DHT22;31340;51.402;0.016;2022-08-21T07:36:39;18.90;91.70
44775;DHT22;31340;51.402;0.016;2022-08-21T07:39:06;19.00;91.60
44775;DHT22;31340;51.402;0.016;2022-08-21T07:41:34;19.10;91.50
44775;DHT22;31340;51.402;0.016;2022-08-21T07:44:02;19.20;91.40
44775;DHT22;31340;51.402;0.016;2022-08-21T07:46:32;19.20;91.30
44775;DHT22;31340;51.402;0.016;2022-08-21T07:48:59;19.30;91.20
44775;DHT22;31340;51.402;0.016;2022-08-21T07:51:27;19.40;91.00
44775;DHT22;31340;51.402;0.016;2022-08-21T07:53:55;19.40;90.90
44775;DHT22;31340;51.402;0.016;2022-08-21T07:56:23;19.50;90.80
44775;DHT22;31340;51.402;0.016;2022-08-21T07:58:50;19.60;90.60
44775;DHT22;31340;51.402;0.016;2022-08-21T08:01:18;19.70;90.50
44775;DHT22;31340;51.402;0.016;2022-08-21T08:03:46;19.80;90.40
44775;DHT22;31340;51.402;0.016;2022-08-21T08:06:13;19.80;90.20
44775;DHT22;31340;51.402;0.016;2022-08-21T08:08:41;19.90;90.10
44775;DHT22;31340;51.402;0.016;2022-08-21T08:11:09;20.00;90.00
44775;DHT22;31340;51.402;0.016;2022-08-21T08:13:43;20.00;89.60
44775;DHT22;31340;51.402;0.016;2022-08-21T08:16:11;20.10;89.20
44775;DHT22;31340;51.402;0.016;2022-08-21T08:18:39;20.10;89.00
44775;DHT22;31340;51.402;0.016;2022-08-21T08:21:06;20.20;88.80
44775;DHT22;31340;51.402;0.016;2022-08-21T08:23:34;20.20;88.50
44775;DHT22;31340;51.402;0.016;2022-08-21T08:26:01;20.30;88.20
44775;DHT22;31340;51.402;0.016;2022-08-21T08:28:30;20.30;87.80
44775;DHT22;31340;51.402;0.016;2022-08-21T08:30:59;20.40;87.50
44775;DHT22;31340;51.402;0.016;2022-08-21T08:33:26;20.40;86.90
44775;DHT22;31340;51.402;0.016;2022-08-21T08:35:54;20.40;86.80
44775;DHT22;31340;51.402;0.016;2022-08-21T08:38:23;20.40;86.50
44775;DHT22;31340;51.402;0.016;2022-08-21T08:43:21;20.50;86.30
44775;DHT22;31340;51.402;0.016;2022-08-21T08:45:50;20.50;85.80
44775;DHT22;31340;51.402;0.016;2022-08-21T08:48:41;20.60;85.80
44775;DHT22;31340;51.402;0.016;2022-08-21T08:51:33;20.60;85.50
44775;DHT22;31340;51.402;0.016;2022-08-21T08:54:06;20.70;85.30
44775;DHT22;31340;51.402;0.016;2022-08-21T08:56:35;20.80;85.20
44775;DHT22;31340;51.402;0.016;2022-08-21T08:59:17;20.90;85.10
44775;DHT22;31340;51.402;0.016;2022-08-21T09:01:45;20.90;84.90
44775;DHT22;31340;51.402;0.016;2022-08-21T09:04:12;21.00;84.50
44775;DHT22;31340;51.402;0.016;2022-08-21T09:07:08;21.10;84.00
44775;DHT22;31340;51.402;0.016;2022-08-21T09:20:33;21.30;81.10
44775;DHT22;31340;51.402;0.016;2022-08-21T09:23:24;21.30;80.60
44775;DHT22;31340;51.402;0.016;2022-08-21T09:25:59;21.30;80.50
44775;DHT22;31340;51.402;0.016;2022-08-21T09:28:35;21.40;80.10
44775;DHT22;31340;51.402;0.016;2022-08-21T09:31:05;21.40;79.60
44775;DHT22;31340;51.402;0.016;2022-08-21T09:33:34;21.50;79.70
44775;DHT22;31340;51.402;0.016;2022-08-21T09:36:01;21.60;79.20
44775;DHT22;31340;51.402;0.016;2022-08-21T09:38:33;21.60;78.80
44775;DHT22;31340;51.402;0.016;2022-08-21T09:41:05;21.70;78.20
44775;DHT22;31340;51.402;0.016;2022-08-21T09:43:34;21.80;77.90
44775;DHT22;31340;51.402;0.016;2022-08-21T09:46:19;21.90;77.30
44775;DHT22;31340;51.402;0.016;2022-08-21T09:48:48;22.00;77.20
44775;DHT22;31340;51.402;0.016;2022-08-21T09:51:18;22.10;76.80
44775;DHT22;31340;51.402;0.016;2022-08-21T09:53:51;22.10;76.50
44775;DHT22;31340;51.402;0.016;2022-08-21T09:56:30;22.20;75.40
44775;DHT22;31340;51.402;0.016;2022-08-21T09:59:27;22.30;75.30
44775;DHT22;31340;51.402;0.016;2022-08-21T10:02:14;22.40;74.20
44775;DHT22;31340;51.402;0.016;2022-08-21T10:04:57;22.40;73.20
44775;DHT22;31340;51.402;0.016;2022-08-21T10:07:27;22.50;72.80
44775;DHT22;31340;51.402;0.016;2022-08-21T10:10:15;22.50;72.50
44775;DHT22;31340;51.402;0.016;2022-08-21T10:13:28;22.60;72.00
44775;DHT22;31340;51.402;0.016;2022-08-21T10:20:57;22.70;71.20
44775;DHT22;31340;51.402;0.016;2022-08-21T10:26:20;22.90;71.30
44775;DHT22;31340;51.402;0.016;2022-08-21T10:33:54;23.20;68.40
44775;DHT22;31340;51.402;0.016;2022-08-21T10:36:29;23.20;68.60
44775;DHT22;31340;51.402;0.016;2022-08-21T10:39:12;23.40;68.50
44775;DHT22;31340;51.402;0.016;2022-08-21T10:47:27;23.90;67.40
44775;DHT22;31340;51.402;0.016;2022-08-21T10:52:41;24.30;65.90
44775;DHT22;31340;51.402;0.016;2022-08-21T10:55:15;24.60;65.10
44775;DHT22;31340;51.402;0.016;2022-08-21T10:57:57;24.80;62.60
44775;DHT22;31340;51.402;0.016;2022-08-21T11:03:33;25.10;63.00
44775;DHT22;31340;51.402;0.016;2022-08-21T11:06:03;25.20;62.10
44775;DHT22;31340;51.402;0.016;2022-08-21T11:08:33;25.40;62.10
44775;DHT22;31340;51.402;0.016;2022-08-21T11:16:42;25.60;60.60
44775;DHT22;31340;51.402;0.016;2022-08-21T11:21:45;25.60;59.80
44775;DHT22;31340;51.402;0.016;2022-08-21T11:24:30;25.70;59.70
44775;DHT22;31340;51.402;0.016;2022-08-21T11:29:49;25.70;59.90
44775;DHT22;31340;51.402;0.016;2022-08-21T11:37:42;25.80;59.70
44775;DHT22;31340;51.402;0.016;2022-08-21T11:50:23;25.60;58.30
44775;DHT22;31340;51.402;0.016;2022-08-21T11:55:41;25.40;58.10
44775;DHT22;31340;51.402;0.016;2022-08-21T11:58:25;25.30;58.20
44775;DHT22;31340;51.402;0.016;2022-08-21T12:00:56;25.30;58.00
44775;DHT22;31340;51.402;0.016;2022-08-21T12:03:28;25.10;58.00
44775;DHT22;31340;51.402;0.016;2022-08-21T12:05:58;25.10;58.00
44775;DHT22;31340;51.402;0.016;2022-08-21T12:11:05;24.90;57.80
44775;DHT22;31340;51.402;0.016;2022-08-21T12:13:51;24.90;58.10
44775;DHT22;31340;51.402;0.016;2022-08-21T12:16:29;24.80;58.20
44775;DHT22;31340;51.402;0.016;2022-08-21T12:19:07;24.80;58.30
44775;DHT22;31340;51.402;0.016;2022-08-21T12:21:47;24.90;58.10
44775;DHT22;31340;51.402;0.016;2022-08-21T12:29:32;24.90;58.40
44775;DHT22;31340;51.402;0.016;2022-08-21T12:34:30;25.00;57.90
44775;DHT22;31340;51.402;0.016;2022-08-21T12:37:00;25.00;58.00
44775;DHT22;31340;51.402;0.016;2022-08-21T12:39:30;25.10;57.80
44775;DHT22;31340;51.402;0.016;2022-08-21T12:42:00;25.10;57.70
44775;DHT22;31340;51.402;0.016;2022-08-21T12:44:35;25.20;57.80
44775;DHT22;31340;51.402;0.016;2022-08-21T12:47:04;25.20;57.80
44775;DHT22;31340;51.402;0.016;2022-08-21T12:49:36;25.30;57.80
44775;DHT22;31340;51.402;0.016;2022-08-21T12:52:11;25.40;57.90
44775;DHT22;31340;51.402;0.016;2022-08-21T12:54:42;25.40;58.50
44775;DHT22;31340;51.402;0.016;2022-08-21T12:57:17;25.50;57.70
44775;DHT22;31340;51.402;0.016;2022-08-21T12:59:52;25.60;57.60
44775;DHT22;31340;51.402;0.016;2022-08-21T13:02:22;25.60;57.60
44775;DHT22;31340;51.402;0.016;2022-08-21T13:04:50;25.60;57.40
44775;DHT22;31340;51.402;0.016;2022-08-21T13:07:22;25.60;57.40
44775;DHT22;31340;51.402;0.016;2022-08-21T13:09:53;25.70;57.50
44775;DHT22;31340;51.402;0.016;2022-08-21T13:12:21;25.70;57.20
44775;DHT22;31340;51.402;0.016;2022-08-21T13:14:56;25.70;57.10
44775;DHT22;31340;51.402;0.016;2022-08-21T13:17:25;25.80;57.00
44775;DHT22;31340;51.402;0.016;2022-08-21T13:19:55;25.70;56.80
44775;DHT22;31340;51.402;0.016;2022-08-21T13:22:25;25.80;56.90
44775;DHT22;31340;51.402;0.016;2022-08-21T13:25:02;25.80;57.00
44775;DHT22;31340;51.402;0.016;2022-08-21T13:27:33;26.00;57.00
44775;DHT22;31340;51.402;0.016;2022-08-21T13:30:17;26.30;57.10
44775;DHT22;31340;51.402;0.016;2022-08-21T13:32:48;26.40;56.50
44775;DHT22;31340;51.402;0.016;2022-08-21T13:38:07;26.90;56.60
44775;DHT22;31340;51.402;0.016;2022-08-21T13:40:44;27.30;56.50
44775;DHT22;31340;51.402;0.016;2022-08-21T13:43:14;27.50;56.50
44775;DHT22;31340;51.402;0.016;2022-08-21T13:45:50;27.90;56.60
44775;DHT22;31340;51.402;0.016;2022-08-21T13:48:19;28.20;56.50
44775;DHT22;31340;51.402;0.016;2022-08-21T13:50:47;28.50;56.10
44775;DHT22;31340;51.402;0.016;2022-08-21T13:55:55;29.00;55.40
44775;DHT22;31340;51.402;0.016;2022-08-21T13:58:31;29.10;54.90
44775;DHT22;31340;51.402;0.016;2022-08-21T14:01:00;29.40;54.80
44775;DHT22;31340;51.402;0.016;2022-08-21T14:03:34;29.50;54.40
44775;DHT22;31340;51.402;0.016;2022-08-21T14:06:03;29.60;54.10
44775;DHT22;31340;51.402;0.016;2022-08-21T14:08:38;29.70;53.90
44775;DHT22;31340;51.402;0.016;2022-08-21T14:11:09;29.90;53.70
44775;DHT22;31340;51.402;0.016;2022-08-21T14:13:40;30.10;53.30
44775;DHT22;31340;51.402;0.016;2022-08-21T14:16:10;30.30;52.90
44775;DHT22;31340;51.402;0.016;2022-08-21T14:18:45;30.40;52.90
44775;DHT22;31340;51.402;0.016;2022-08-21T14:21:13;30.50;52.50
44775;DHT22;31340;51.402;0.016;2022-08-21T14:23:40;30.80;51.80
44775;DHT22;31340;51.402;0.016;2022-08-21T14:26:08;31.00;51.30
44775;DHT22;31340;51.402;0.016;2022-08-21T14:28:40;31.30;51.10
44775;DHT22;31340;51.402;0.016;2022-08-21T14:31:16;31.50;50.20
44775;DHT22;31340;51.402;0.016;2022-08-21T14:33:45;31.80;49.90
44775;DHT22;31340;51.402;0.016;2022-08-21T14:36:13;32.10;49.70
44775;DHT22;31340;51.402;0.016;2022-08-21T14:38:40;32.30;49.20
44775;DHT22;31340;51.402;0.016;2022-08-21T14:41:12;32.50;48.20
44775;DHT22;31340;51.402;0.016;2022-08-21T14:43:43;32.50;46.60
44775;DHT22;31340;51.402;0.016;2022-08-21T14:46:12;32.40;45.20
44775;DHT22;31340;51.402;0.016;2022-08-21T14:48:40;32.30;45.70
44775;DHT22;31340;51.402;0.016;2022-08-21T14:51:08;32.20;45.70
44775;DHT22;31340;51.402;0.016;2022-08-21T14:53:35;32.10;45.80
44775;DHT22;31340;51.402;0.016;2022-08-21T14:56:03;32.10;46.00
44775;DHT22;31340;51.402;0.016;2022-08-21T14:58:38;32.00;46.00
44775;DHT22;31340;51.402;0.016;2022-08-21T15:01:06;32.10;46.00
44775;DHT22;31340;51.402;0.016;2022-08-21T15:03:35;32.30;45.60
44775;DHT22;31340;51.402;0.016;2022-08-21T15:06:03;32.40;45.70
44775;DHT22;31340;51.402;0.016;2022-08-21T15:08:31;32.60;45.90
44775;DHT22;31340;51.402;0.016;2022-08-21T15:11:00;32.90;45.90
44775;DHT22;31340;51.402;0.016;2022-08-21T15:13:49;33.20;45.90
44775;DHT22;31340;51.402;0.016;2022-08-21T15:16:20;33.50;45.60
44775;DHT22;31340;51.402;0.016;2022-08-21T15:18:47;33.90;45.20
44775;DHT22;31340;51.402;0.016;2022-08-21T15:21:15;34.20;44.00
44775;DHT22;31340;51.402;0.016;2022-08-21T15:23:42;34.40;43.00
44775;DHT22;31340;51.402;0.016;2022-08-21T15:26:10;34.60;42.60
44775;DHT22;31340;51.402;0.016;2022-08-21T15:28:38;34.80;41.70
44775;DHT22;31340;51.402;0.016;2022-08-21T15:31:06;34.90;41.00
44775;DHT22;31340;51.402;0.016;2022-08-21T15:33:34;35.00;41.10
44775;DHT22;31340;51.402;0.016;2022-08-21T15:36:01;35.20;41.10
44775;DHT22;31340;51.402;0.016;2022-08-21T15:38:29;35.30;40.50
44775;DHT22;31340;51.402;0.016;2022-08-21T15:40:57;35.40;40.20
44775;DHT22;31340;51.402;0.016;2022-08-21T15:43:32;35.40;39.10
44775;DHT22;31340;51.402;0.016;2022-08-21T15:46:01;35.40;39.20
44775;DHT22;31340;51.402;0.016;2022-08-21T15:48:29;35.50;38.60
44775;DHT22;31340;51.402;0.016;2022-08-21T15:50:57;35.50;38.30
44775;DHT22;31340;51.402;0.016;2022-08-21T15:53:24;35.50;38.80
44775;DHT22;31340;51.402;0.016;2022-08-21T15:55:52;35.60;38.70
44775;DHT22;31340;51.402;0.016;2022-08-21T15:58:20;35.70;39.10
44775;DHT22;31340;51.402;0.016;2022-08-21T16:00:48;35.80;38.50
44775;DHT22;31340;51.402;0.016;2022-08-21T16:03:17;35.80;38.10
44775;DHT22;31340;51.402;0.016;2022-08-21T16:05:48;35.90;38.30
44775;DHT22;31340;51.402;0.016;2022-08-21T16:08:19;36.00;37.90
44775;DHT22;31340;51.402;0.016;2022-08-21T16:10:47;36.10;37.20
44775;DHT22;31340;51.402;0.016;2022-08-21T16:13:16;36.20;37.10
44775;DHT22;31340;51.402;0.016;2022-08-21T16:15:45;36.20;36.80
44775;DHT22;31340;51.402;0.016;2022-08-21T16:18:13;36.20;36.60
44775;DHT22;31340;51.402;0.016;2022-08-21T16:20:40;36.20;36.20
44775;DHT22;31340;51.402;0.016;2022-08-21T16:23:07;36.20;36.10
44775;DHT22;31340;51.402;0.016;2022-08-21T16:25:38;36.20;36.00
44775;DHT22;31340;51.402;0.016;2022-08-21T16:28:07;36.20;35.50
44775;DHT22;31340;51.402;0.016;2022-08-21T16:30:38;36.10;35.30
44775;DHT22;31340;51.402;0.016;2022-08-21T16:33:05;36.00;35.20
44775;DHT22;31340;51.402;0.016;2022-08-21T16:35:34;35.90;35.10
44775;DHT22;31340;51.402;0.016;2022-08-21T16:38:02;35.80;35.20
44775;DHT22;31340;51.402;0.016;2022-08-21T16:40:30;35.50;34.90
44775;DHT22;31340;51.402;0.016;2022-08-21T16:42:57;35.30;35.00
44775;DHT22;31340;51.402;0.016;2022-08-21T16:45:25;35.20;35.00
44775;DHT22;31340;51.402;0.016;2022-08-21T16:47:59;35.10;35.00
44775;DHT22;31340;51.402;0.016;2022-08-21T16:50:27;34.90;35.20
44775;DHT22;31340;51.402;0.016;2022-08-21T16:52:55;34.80;35.20
44775;DHT22;31340;51.402;0.016;2022-08-21T16:55:22;34.70;35.30
44775;DHT22;31340;51.402;0.016;2022-08-21T16:57:49;34.60;35.30
44775;DHT22;31340;51.402;0.016;2022-08-21T17:00:17;34.50;35.40
44775;DHT22;31340;51.402;0.016;2022-08-21T17:02:46;34.30;35.60
44775;DHT22;31340;51.402;0.016;2022-08-21T17:05:14;34.30;35.60
44775;DHT22;31340;51.402;0.016;2022-08-21T17:07:42;34.20;35.60
44775;DHT22;31340;51.402;0.016;2022-08-21T17:10:10;34.10;35.60
44775;DHT22;31340;51.402;0.016;2022-08-21T17:12:40;34.00;35.60